Time;durP1;ratioP1;P1;durP2;ratioP2;P2;SDS_P1;SDS_P2;PMS_P1;PMS_P2;Temp;Humidity;BMP_temperature;BMP_pressure;BME280_temperature;BME280_humidity;BME280_pressure;Samples;Min_cycle;Max_cycle;Signal;HPM_P1;HPM_P2
2021/05/19 00:01:25;;;;;;;1.00;0.90;;;21.60;57.30;;;;;;4987334;28;21206;-57
2021/05/19 00:03:52;;;;;;;2.23;0.87;;;21.60;57.40;;;;;;4990488;28;20247;-54
2021/05/19 00:06:19;;;;;;;1.47;0.80;;;21.60;57.10;;;;;;4983327;28;20228;-54
2021/05/19 00:08:46;;;;;;;1.07;0.90;;;21.50;57.30;;;;;;4997633;28;20248;-55
2021/05/19 00:11:12;;;;;;;1.90;0.80;;;21.50;57.30;;;;;;4970670;28;20243;-54
2021/05/19 00:13:39;;;;;;;2.17;0.77;;;21.50;57.40;;;;;;4965331;28;20225;-54
2021/05/19 00:16:07;;;;;;;2.50;0.70;;;21.50;57.50;;;;;;4959185;28;20222;-55
2021/05/19 00:18:35;;;;;;;1.03;0.77;;;21.50;57.40;;;;;;4977619;28;20829;-55
2021/05/19 00:21:03;;;;;;;0.77;0.70;;;21.50;57.30;;;;;;4985779;28;20230;-53
2021/05/19 00:23:31;;;;;;;0.87;0.70;;;21.40;57.30;;;;;;4984691;28;20646;-55
2021/05/19 00:25:58;;;;;;;1.07;0.67;;;21.40;57.50;;;;;;4983131;28;20216;-55
2021/05/19 00:28:25;;;;;;;0.67;0.63;;;21.40;57.30;;;;;;4984113;28;20232;-55
2021/05/19 00:30:56;;;;;;;0.77;0.70;;;21.40;57.40;;;;;;4982652;28;20227;-54
2021/05/19 00:33:23;;;;;;;0.63;0.63;;;21.40;57.40;;;;;;4999270;28;20227;-54
2021/05/19 00:35:55;;;;;;;2.83;1.00;;;21.40;57.30;;;;;;4983952;28;20230;-54
2021/05/19 00:38:22;;;;;;;1.07;0.80;;;21.40;57.40;;;;;;4983524;28;20232;-55
2021/05/19 00:40:49;;;;;;;0.67;0.60;;;21.30;57.40;;;;;;4986381;28;20302;-57
2021/05/19 00:43:16;;;;;;;2.13;0.90;;;21.30;57.30;;;;;;5006682;28;20216;-56
2021/05/19 00:45:48;;;;;;;1.20;0.80;;;21.30;57.30;;;;;;4979606;28;20276;-54
2021/05/19 00:48:15;;;;;;;1.23;0.80;;;21.30;57.30;;;;;;4988255;28;20857;-56
2021/05/19 00:50:42;;;;;;;1.23;0.90;;;21.30;57.30;;;;;;4989041;28;20936;-54
2021/05/19 00:53:09;;;;;;;1.37;0.53;;;21.30;57.30;;;;;;4988099;28;20680;-53
2021/05/19 00:55:41;;;;;;;0.67;0.67;;;21.30;57.30;;;;;;4989204;28;20226;-55
2021/05/19 00:58:08;;;;;;;0.60;0.60;;;21.30;57.20;;;;;;4985662;28;22218;-55
2021/05/19 01:00:36;;;;;;;0.77;0.70;;;21.30;57.20;;;;;;4988913;28;20226;-56
2021/05/19 01:03:02;;;;;;;1.13;0.70;;;21.20;57.20;;;;;;4988859;28;20714;-54
2021/05/19 01:05:38;;;;;;;0.70;0.60;;;21.30;57.20;;;;;;5002900;28;20224;-54
2021/05/19 01:10:52;;;;;;;0.80;0.80;;;21.20;57.10;;;;;;4986819;28;20667;-55
2021/05/19 01:13:20;;;;;;;1.10;0.60;;;21.20;57.10;;;;;;4986115;28;20231;-57
2021/05/19 01:15:48;;;;;;;1.30;0.90;;;21.20;57.70;;;;;;4982580;28;20230;-55
2021/05/19 01:18:15;;;;;;;0.63;0.60;;;21.20;57.10;;;;;;4989608;28;20432;-55
2021/05/19 01:20:42;;;;;;;1.07;0.70;;;21.20;57.10;;;;;;4984841;28;20223;-55
2021/05/19 01:23:09;;;;;;;1.07;0.70;;;21.20;57.00;;;;;;4987149;28;20612;-55
2021/05/19 01:25:37;;;;;;;0.83;0.60;;;21.20;57.00;;;;;;4987312;28;20764;-55
2021/05/19 01:28:07;;;;;;;2.03;0.97;;;21.20;57.00;;;;;;4987126;28;20857;-55
2021/05/19 01:30:35;;;;;;;1.03;0.77;;;21.10;56.90;;;;;;4986527;28;20224;-56
2021/05/19 01:33:03;;;;;;;0.90;0.70;;;21.10;56.90;;;;;;4985987;28;20314;-55
2021/05/19 01:35:32;;;;;;;1.33;0.83;;;21.10;56.90;;;;;;4987543;28;20591;-55
2021/05/19 01:37:59;;;;;;;0.83;0.83;;;21.10;56.80;;;;;;4986382;28;20231;-53
2021/05/19 01:40:27;;;;;;;0.67;0.60;;;21.10;56.90;;;;;;4988369;28;20630;-56
2021/05/19 01:42:55;;;;;;;1.07;0.77;;;21.10;56.80;;;;;;4987489;28;20243;-56
2021/05/19 01:45:24;;;;;;;0.80;0.63;;;21.10;56.80;;;;;;4987427;28;20445;-55
2021/05/19 01:47:53;;;;;;;0.97;0.77;;;21.10;56.80;;;;;;4979961;28;20227;-57
2021/05/19 01:50:28;;;;;;;0.80;0.80;;;21.10;56.80;;;;;;4988650;28;20235;-56
2021/05/19 01:53:00;;;;;;;0.60;0.60;;;21.10;56.70;;;;;;4986778;28;20227;-54
2021/05/19 01:55:32;;;;;;;1.30;0.70;;;21.00;56.60;;;;;;4987457;28;20742;-54
2021/05/19 01:57:59;;;;;;;0.83;0.80;;;21.10;56.70;;;;;;4982343;28;20235;-54
2021/05/19 02:00:27;;;;;;;1.37;0.80;;;21.00;56.70;;;;;;4980070;28;20610;-56
2021/05/19 02:03:05;;;;;;;0.90;0.80;;;21.00;56.60;;;;;;4988308;28;20228;-55
2021/05/19 02:05:34;;;;;;;0.70;0.63;;;21.00;56.60;;;;;;4987903;28;20228;-55
2021/05/19 02:08:04;;;;;;;0.80;0.63;;;21.00;56.60;;;;;;4986290;28;20281;-56
2021/05/19 02:10:31;;;;;;;0.80;0.63;;;21.00;56.50;;;;;;4985227;28;20782;-54
2021/05/19 02:13:04;;;;;;;0.80;0.80;;;21.00;56.50;;;;;;4987183;28;20224;-56
2021/05/19 02:15:36;;;;;;;1.07;0.83;;;21.00;56.40;;;;;;4986748;28;20228;-54
2021/05/19 02:18:04;;;;;;;1.27;0.80;;;21.00;56.50;;;;;;4986041;28;20220;-54
2021/05/19 02:20:31;;;;;;;0.87;0.70;;;21.00;56.40;;;;;;4983917;28;20243;-54
2021/05/19 02:22:58;;;;;;;0.70;0.70;;;21.00;56.40;;;;;;4985821;28;20257;-56
2021/05/19 02:25:25;;;;;;;0.80;0.60;;;21.00;56.40;;;;;;4987220;28;20224;-56
2021/05/19 02:27:52;;;;;;;0.80;0.70;;;21.00;56.30;;;;;;4985705;28;20216;-54
2021/05/19 02:30:21;;;;;;;1.13;0.60;;;20.90;56.30;;;;;;4985323;28;20232;-54
2021/05/19 02:32:49;;;;;;;0.80;0.80;;;21.00;56.30;;;;;;4988611;28;20250;-56
2021/05/19 02:35:17;;;;;;;0.97;0.80;;;21.00;56.30;;;;;;4983894;28;20225;-54
2021/05/19 02:37:44;;;;;;;1.40;0.70;;;20.90;56.20;;;;;;4980704;28;20578;-56
2021/05/19 02:40:14;;;;;;;0.70;0.70;;;20.90;56.20;;;;;;4985627;28;20235;-55
2021/05/19 02:42:42;;;;;;;0.60;0.57;;;20.90;56.10;;;;;;4988044;28;20232;-55
2021/05/19 02:45:10;;;;;;;0.77;0.70;;;20.90;56.10;;;;;;4986118;28;20232;-54
2021/05/19 02:47:37;;;;;;;1.87;0.70;;;20.90;56.20;;;;;;4985622;28;20228;-54
2021/05/19 02:50:04;;;;;;;0.80;0.80;;;20.90;56.10;;;;;;4985233;28;20255;-55
2021/05/19 02:52:31;;;;;;;1.33;0.80;;;20.90;56.10;;;;;;4987195;28;20716;-54
2021/05/19 02:54:58;;;;;;;0.80;0.80;;;20.90;56.00;;;;;;4986834;28;20228;-55
2021/05/19 02:57:25;;;;;;;1.17;0.83;;;20.90;56.10;;;;;;4985528;28;20228;-54
2021/05/19 02:59:52;;;;;;;0.60;0.60;;;20.90;56.00;;;;;;4983209;28;20236;-55
2021/05/19 03:02:19;;;;;;;0.80;0.80;;;20.90;55.90;;;;;;4986562;28;20227;-57
2021/05/19 03:04:46;;;;;;;0.90;0.80;;;20.90;55.90;;;;;;4986189;28;20226;-55
2021/05/19 03:07:13;;;;;;;1.20;0.80;;;20.90;55.90;;;;;;4987707;28;20226;-55
2021/05/19 03:09:40;;;;;;;0.60;0.60;;;20.80;55.90;;;;;;4986116;28;20220;-54
2021/05/19 03:12:07;;;;;;;0.70;0.70;;;20.80;55.90;;;;;;4984643;28;20231;-56
2021/05/19 03:14:34;;;;;;;0.53;0.53;;;20.80;55.90;;;;;;4985025;28;20232;-55
2021/05/19 03:17:02;;;;;;;0.60;0.57;;;20.80;55.80;;;;;;4986006;28;20224;-54
2021/05/19 03:19:29;;;;;;;0.90;0.73;;;20.80;55.80;;;;;;4987146;28;20592;-54
2021/05/19 03:21:56;;;;;;;1.10;0.70;;;20.80;55.80;;;;;;4984780;28;20220;-55
2021/05/19 03:24:23;;;;;;;0.50;0.50;;;20.80;55.60;;;;;;4981970;28;20232;-55
2021/05/19 03:26:50;;;;;;;0.50;0.50;;;20.80;55.70;;;;;;4985743;28;20566;-54
2021/05/19 03:29:17;;;;;;;1.07;0.67;;;20.80;55.60;;;;;;4987805;28;20235;-56
2021/05/19 03:31:44;;;;;;;1.87;0.80;;;20.80;55.70;;;;;;4983956;28;20892;-55
2021/05/19 03:34:11;;;;;;;0.70;0.70;;;20.80;55.70;;;;;;4986499;28;20228;-55
2021/05/19 03:36:38;;;;;;;1.43;0.70;;;20.80;55.60;;;;;;4985097;28;20227;-55
2021/05/19 03:39:08;;;;;;;2.03;0.90;;;20.80;55.60;;;;;;4984619;28;20220;-55
2021/05/19 03:41:35;;;;;;;0.57;0.57;;;20.80;55.60;;;;;;4986338;28;20238;-55
2021/05/19 03:44:04;;;;;;;0.63;0.60;;;20.80;55.60;;;;;;4984825;28;20216;-56
2021/05/19 03:46:31;;;;;;;1.13;0.90;;;20.70;55.60;;;;;;4985171;28;20220;-54
2021/05/19 03:49:00;;;;;;;0.80;0.80;;;20.70;55.50;;;;;;4984709;28;20309;-56
2021/05/19 03:51:28;;;;;;;0.70;0.70;;;20.70;55.50;;;;;;4982904;28;20232;-54
2021/05/19 03:53:56;;;;;;;1.07;0.77;;;20.70;55.50;;;;;;4973891;28;20231;-53
2021/05/19 03:56:22;;;;;;;0.80;0.80;;;20.70;55.40;;;;;;4981008;28;20224;-60
2021/05/19 03:58:49;;;;;;;0.67;0.60;;;20.70;55.40;;;;;;4984518;28;20223;-60
2021/05/19 04:01:16;;;;;;;0.70;0.70;;;20.70;55.50;;;;;;4984323;28;20228;-60
2021/05/19 04:03:43;;;;;;;1.07;0.60;;;20.70;55.40;;;;;;4980932;28;20231;-61
2021/05/19 04:06:10;;;;;;;1.07;0.70;;;20.70;55.40;;;;;;4983235;28;20215;-63
2021/05/19 04:08:42;;;;;;;1.70;0.57;;;20.70;55.40;;;;;;4983517;28;20594;-63
2021/05/19 04:11:09;;;;;;;0.77;0.77;;;20.70;55.40;;;;;;4984195;28;20239;-64
2021/05/19 04:13:36;;;;;;;0.70;0.70;;;20.70;55.40;;;;;;4983686;28;20239;-63
2021/05/19 04:16:04;;;;;;;1.00;0.70;;;20.70;55.40;;;;;;4981323;28;20238;-63
2021/05/19 04:18:31;;;;;;;2.00;0.90;;;20.70;55.40;;;;;;4992928;28;20902;-64
2021/05/19 04:21:03;;;;;;;0.63;0.60;;;20.70;55.40;;;;;;4985222;28;20818;-56
2021/05/19 04:23:30;;;;;;;0.80;0.80;;;20.70;55.40;;;;;;4985225;28;20225;-56
2021/05/19 04:25:57;;;;;;;0.97;0.80;;;20.70;55.30;;;;;;4980997;28;20239;-55
2021/05/19 04:28:24;;;;;;;0.80;0.80;;;20.60;55.10;;;;;;4984323;28;20255;-56
2021/05/19 04:30:51;;;;;;;0.83;0.60;;;20.70;55.20;;;;;;4986205;28;20232;-55
2021/05/19 04:33:19;;;;;;;0.70;0.70;;;20.70;55.20;;;;;;4985138;28;20239;-54
2021/05/19 04:35:46;;;;;;;0.77;0.77;;;20.60;55.20;;;;;;4984725;28;21032;-55
2021/05/19 04:38:13;;;;;;;0.67;0.60;;;20.60;55.10;;;;;;4995459;28;20307;-56
2021/05/19 04:40:41;;;;;;;0.83;0.80;;;20.60;55.10;;;;;;4986657;28;20315;-55
2021/05/19 04:43:09;;;;;;;0.90;0.70;;;20.60;55.10;;;;;;4976109;28;20726;-55
2021/05/19 04:45:37;;;;;;;0.90;0.57;;;20.60;55.00;;;;;;4989906;28;20737;-55
2021/05/19 04:48:05;;;;;;;0.70;0.70;;;20.60;55.10;;;;;;4984755;28;20311;-55
2021/05/19 04:50:33;;;;;;;0.97;0.77;;;20.60;55.10;;;;;;4983033;28;20253;-55
2021/05/19 04:53:00;;;;;;;0.73;0.73;;;20.60;55.00;;;;;;4985968;28;20232;-56
2021/05/19 04:55:27;;;;;;;2.50;0.77;;;20.60;55.00;;;;;;4984167;28;20220;-56
2021/05/19 04:57:53;;;;;;;0.63;0.60;;;20.60;55.10;;;;;;4981974;28;20333;-57
2021/05/19 05:00:20;;;;;;;4.17;0.70;;;20.60;55.00;;;;;;4985146;28;20239;-55
2021/05/19 05:02:47;;;;;;;2.20;0.60;;;20.60;54.90;;;;;;4983730;28;20860;-56
2021/05/19 05:05:14;;;;;;;2.13;0.70;;;20.60;54.70;;;;;;4984129;28;20232;-56
2021/05/19 05:07:41;;;;;;;0.77;0.60;;;20.60;54.70;;;;;;4983330;28;20220;-55
2021/05/19 05:10:10;;;;;;;1.00;0.60;;;20.60;54.70;;;;;;4984277;28;20228;-62
2021/05/19 05:12:37;;;;;;;1.00;0.73;;;20.60;54.70;;;;;;4984001;28;20590;-63
2021/05/19 05:15:05;;;;;;;0.80;0.80;;;20.60;54.70;;;;;;4981220;28;20233;-57
2021/05/19 05:17:32;;;;;;;1.30;0.80;;;20.60;54.70;;;;;;4981566;28;20226;-57
2021/05/19 05:20:00;;;;;;;3.23;0.87;;;20.60;54.70;;;;;;4981782;28;20282;-58
2021/05/19 05:22:26;;;;;;;1.20;0.90;;;20.60;54.60;;;;;;4981825;28;20221;-56
2021/05/19 05:24:54;;;;;;;1.50;0.80;;;20.60;54.50;;;;;;4983270;28;20216;-59
2021/05/19 05:27:21;;;;;;;3.87;0.90;;;20.60;54.50;;;;;;4981668;28;20224;-58
2021/05/19 05:29:47;;;;;;;2.00;0.83;;;20.60;54.30;;;;;;4981657;28;20208;-58
2021/05/19 05:32:14;;;;;;;1.77;0.80;;;20.60;54.20;;;;;;4986507;28;20224;-58
2021/05/19 05:34:41;;;;;;;2.80;0.80;;;20.60;54.00;;;;;;4986348;28;20290;-58
2021/05/19 05:37:08;;;;;;;2.67;0.90;;;20.60;54.00;;;;;;4987060;28;20719;-57
2021/05/19 05:39:35;;;;;;;2.20;0.90;;;20.60;53.90;;;;;;4984323;28;20215;-58
2021/05/19 05:42:02;;;;;;;6.93;1.27;;;20.60;54.00;;;;;;4983262;28;20362;-57
2021/05/19 05:44:29;;;;;;;7.37;1.50;;;20.60;54.00;;;;;;4986702;28;20815;-57
2021/05/19 05:46:56;;;;;;;5.37;1.20;;;20.60;53.70;;;;;;4986831;28;20599;-62
2021/05/19 05:49:23;;;;;;;4.97;1.10;;;20.60;53.80;;;;;;4986187;28;20224;-63
2021/05/19 05:51:50;;;;;;;4.67;1.10;;;20.70;54.30;;;;;;4982069;28;20278;-63
2021/05/19 05:54:17;;;;;;;6.43;1.20;;;20.60;54.40;;;;;;4984340;28;20228;-63
2021/05/19 05:56:44;;;;;;;12.60;1.73;;;20.60;54.90;;;;;;5016168;28;21769;-63
2021/05/19 05:59:11;;;;;;;8.57;1.30;;;20.70;55.10;;;;;;4985535;28;20228;-63
2021/05/19 06:01:38;;;;;;;5.47;1.50;;;20.70;54.80;;;;;;4985498;28;20224;-65
2021/05/19 06:04:05;;;;;;;4.10;1.40;;;20.70;54.50;;;;;;4983210;28;20247;-64
2021/05/19 06:06:32;;;;;;;5.97;1.57;;;20.70;54.40;;;;;;4984930;28;20600;-64
2021/05/19 06:08:59;;;;;;;9.57;1.90;;;20.70;53.70;;;;;;4986487;28;20227;-64
2021/05/19 06:11:26;;;;;;;4.13;1.73;;;20.70;53.30;;;;;;4984942;28;20220;-65
2021/05/19 06:13:53;;;;;;;3.57;1.50;;;20.60;53.30;;;;;;4983445;28;20238;-64
2021/05/19 06:16:20;;;;;;;6.87;1.93;;;20.70;53.60;;;;;;4975711;28;21433;-61
2021/05/19 06:18:47;;;;;;;4.47;1.73;;;20.60;53.80;;;;;;4984905;28;20232;-65
2021/05/19 06:21:13;;;;;;;7.27;2.00;;;20.60;54.00;;;;;;4984962;28;20750;-64
2021/05/19 06:23:41;;;;;;;8.57;1.77;;;20.60;54.00;;;;;;4983551;28;20228;-63
2021/05/19 06:26:08;;;;;;;6.87;1.40;;;20.60;54.20;;;;;;4982487;28;20223;-64
2021/05/19 06:28:34;;;;;;;7.20;1.50;;;20.70;54.40;;;;;;4983703;28;20227;-63
2021/05/19 06:31:01;;;;;;;7.83;2.10;;;20.70;54.20;;;;;;4985156;28;20224;-62
2021/05/19 06:33:29;;;;;;;6.33;1.57;;;20.60;54.00;;;;;;4970467;28;20228;-64
2021/05/19 06:35:56;;;;;;;4.30;1.60;;;20.60;54.10;;;;;;4969993;28;20235;-64
2021/05/19 06:38:22;;;;;;;10.67;1.90;;;20.70;54.10;;;;;;4982851;28;20255;-64
2021/05/19 06:40:49;;;;;;;10.13;1.90;;;20.70;53.90;;;;;;5008373;28;21013;-64
2021/05/19 06:43:16;;;;;;;9.00;2.80;;;20.70;54.00;;;;;;4985870;28;20219;-66
2021/05/19 06:45:43;;;;;;;9.00;2.30;;;20.70;54.50;;;;;;4980346;28;20514;-66
2021/05/19 06:48:10;;;;;;;10.67;2.60;;;20.70;54.30;;;;;;4987936;28;20244;-67
2021/05/19 06:50:37;;;;;;;10.37;2.20;;;20.80;54.40;;;;;;4983373;28;20247;-57
2021/05/19 06:53:04;;;;;;;7.73;1.90;;;20.80;54.20;;;;;;4982114;28;20216;-58
2021/05/19 06:55:31;;;;;;;8.73;2.00;;;20.90;54.00;;;;;;4981209;28;20224;-58
2021/05/19 06:57:57;;;;;;;7.00;2.20;;;20.90;53.70;;;;;;4982308;28;20227;-58
2021/05/19 07:00:24;;;;;;;7.47;2.00;;;21.00;53.70;;;;;;4983203;28;20226;-57
2021/05/19 07:02:51;;;;;;;6.90;1.70;;;21.00;54.20;;;;;;4982614;28;20239;-59
2021/05/19 07:05:18;;;;;;;6.10;1.77;;;21.10;54.70;;;;;;4979667;28;20291;-56
2021/05/19 07:07:46;;;;;;;7.13;1.80;;;21.20;54.90;;;;;;4987046;28;20220;-57
2021/05/19 07:10:14;;;;;;;4.20;1.80;;;21.20;54.80;;;;;;4986950;28;20862;-56
2021/05/19 07:12:41;;;;;;;5.50;1.50;;;21.30;54.80;;;;;;4987293;28;20219;-56
2021/05/19 07:15:13;;;;;;;6.57;1.70;;;21.40;54.70;;;;;;4984296;28;20234;-59
2021/05/19 07:17:40;;;;;;;3.53;1.33;;;21.50;54.40;;;;;;4974939;28;20237;-60
2021/05/19 07:20:09;;;;;;;4.37;1.77;;;21.50;54.50;;;;;;4980996;28;20216;-58
2021/05/19 07:22:36;;;;;;;2.70;1.40;;;21.60;54.30;;;;;;4984441;28;20703;-61
2021/05/19 07:25:04;;;;;;;2.67;1.50;;;21.60;54.10;;;;;;4982582;28;20576;-59
2021/05/19 07:27:31;;;;;;;3.80;1.37;;;21.70;54.00;;;;;;4983315;28;20240;-61
2021/05/19 07:29:58;;;;;;;3.43;1.33;;;21.80;53.90;;;;;;4977629;28;21163;-61
2021/05/19 07:32:25;;;;;;;5.17;1.60;;;21.80;53.70;;;;;;4974627;28;20728;-60
2021/05/19 07:34:53;;;;;;;8.33;1.30;;;21.80;53.50;;;;;;4982840;28;20216;-59
2021/05/19 07:37:20;;;;;;;3.97;1.57;;;21.90;53.50;;;;;;4982001;28;20232;-60
2021/05/19 07:39:47;;;;;;;6.13;1.80;;;22.00;53.50;;;;;;4977339;28;20230;-59
2021/05/19 07:42:17;;;;;;;5.03;1.57;;;22.00;53.30;;;;;;4984777;28;20247;-58
2021/05/19 07:44:45;;;;;;;4.10;1.60;;;22.10;53.30;;;;;;4964669;28;20569;-60
2021/05/19 07:47:12;;;;;;;2.80;1.17;;;22.10;53.20;;;;;;4964256;28;20236;-58
2021/05/19 07:49:38;;;;;;;3.67;1.53;;;22.10;53.10;;;;;;4962427;28;20347;-58
2021/05/19 07:52:04;;;;;;;6.03;1.50;;;22.20;53.00;;;;;;4958566;28;20232;-64
2021/05/19 07:54:31;;;;;;;2.97;1.60;;;22.20;53.00;;;;;;4963107;28;20224;-62
2021/05/19 07:57:04;;;;;;;3.17;1.63;;;22.20;52.80;;;;;;4968650;28;20306;-56
2021/05/19 07:59:32;;;;;;;3.53;1.53;;;22.30;52.60;;;;;;4981929;28;20220;-54
2021/05/19 08:02:02;;;;;;;5.17;2.00;;;22.30;52.50;;;;;;4981442;28;20259;-54
2021/05/19 08:04:33;;;;;;;3.23;1.40;;;22.30;52.50;;;;;;4982483;28;20259;-55
2021/05/19 08:07:00;;;;;;;7.23;1.90;;;22.40;52.30;;;;;;4982291;28;20228;-58
2021/05/19 08:09:27;;;;;;;11.07;1.80;;;22.40;52.20;;;;;;4990561;28;20232;-56
2021/05/19 08:11:54;;;;;;;2.93;1.40;;;22.40;52.20;;;;;;4979779;28;20627;-55
2021/05/19 08:14:20;;;;;;;4.33;1.63;;;22.50;52.10;;;;;;4982617;28;20236;-55
2021/05/19 08:16:46;;;;;;;4.20;1.83;;;22.50;52.00;;;;;;4989727;28;20266;-58
2021/05/19 08:19:12;;;;;;;8.00;1.80;;;22.50;51.90;;;;;;4983252;28;20254;-54
2021/05/19 08:21:39;;;;;;;3.00;1.57;;;22.60;51.90;;;;;;4983081;28;20235;-57
2021/05/19 08:24:07;;;;;;;4.03;1.90;;;22.60;51.40;;;;;;4983624;28;20228;-54
2021/05/19 08:26:40;;;;;;;6.30;1.90;;;22.60;51.30;;;;;;4983852;28;20271;-55
2021/05/19 08:29:07;;;;;;;4.17;1.90;;;22.60;51.20;;;;;;4983644;28;20505;-55
2021/05/19 08:31:34;;;;;;;3.97;1.57;;;22.60;51.10;;;;;;4980373;28;20228;-56
2021/05/19 08:34:11;;;;;;;3.00;1.70;;;22.70;51.10;;;;;;4983191;28;20227;-56
2021/05/19 08:36:39;;;;;;;3.93;1.70;;;22.70;50.80;;;;;;4985416;28;20232;-55
2021/05/19 08:39:06;;;;;;;3.57;1.93;;;22.70;51.00;;;;;;4983758;28;20224;-54
2021/05/19 08:41:33;;;;;;;3.37;2.03;;;22.70;51.00;;;;;;4983698;28;20240;-55
2021/05/19 08:44:00;;;;;;;4.97;1.80;;;22.80;51.00;;;;;;4977620;28;20259;-54
2021/05/19 08:46:28;;;;;;;4.70;2.00;;;22.80;50.90;;;;;;4982301;28;20234;-53
2021/05/19 08:49:05;;;;;;;4.57;2.40;;;22.80;50.00;;;;;;4980833;28;20247;-57
2021/05/19 08:51:32;;;;;;;8.00;2.50;;;22.70;48.50;;;;;;4984949;28;20227;-58
2021/05/19 08:53:58;;;;;;;47.47;9.27;;;22.60;48.40;;;;;;4977844;28;20239;-54
2021/05/19 08:56:25;;;;;;;120.83;23.13;;;22.50;48.70;;;;;;4982979;28;20231;-55
2021/05/19 08:58:53;;;;;;;121.27;21.30;;;22.40;49.60;;;;;;4981270;28;20238;-54
2021/05/19 09:01:21;;;;;;;78.07;17.63;;;22.40;49.80;;;;;;4980473;28;20236;-54
2021/05/19 09:04:05;;;;;;;67.40;15.53;;;22.30;49.90;;;;;;4981793;28;20228;-53
2021/05/19 09:06:34;;;;;;;55.37;13.53;;;22.20;50.20;;;;;;4981565;28;20301;-53
2021/05/19 09:09:25;;;;;;;43.57;12.17;;;22.20;50.50;;;;;;4986809;28;20232;-54
2021/05/19 09:12:03;;;;;;;38.47;9.90;;;22.10;50.50;;;;;;4984272;28;20234;-55
2021/05/19 09:14:33;;;;;;;29.83;8.70;;;22.10;50.30;;;;;;4983866;28;20239;-54
2021/05/19 09:17:14;;;;;;;25.00;8.50;;;22.10;50.00;;;;;;4985448;28;20688;-55
2021/05/19 09:19:41;;;;;;;26.83;7.63;;;22.00;50.20;;;;;;4981611;28;20703;-55
2021/05/19 09:22:19;;;;;;;19.97;6.63;;;22.00;50.10;;;;;;4986828;28;20227;-55
2021/05/19 09:24:46;;;;;;;21.17;6.60;;;22.00;49.90;;;;;;4987094;28;20227;-53
2021/05/19 09:27:13;;;;;;;18.60;6.33;;;21.90;50.00;;;;;;4985461;28;20239;-53
2021/05/19 09:29:43;;;;;;;16.20;6.37;;;21.90;50.50;;;;;;4986855;28;20238;-54
2021/05/19 09:32:13;;;;;;;13.93;5.93;;;21.90;50.70;;;;;;4984226;28;20228;-55
2021/05/19 09:34:41;;;;;;;12.83;5.57;;;21.90;51.00;;;;;;4986123;28;20243;-55
2021/05/19 09:37:25;;;;;;;13.17;5.70;;;21.80;50.90;;;;;;4989028;28;20224;-53
2021/05/19 09:39:56;;;;;;;11.53;4.87;;;21.80;50.70;;;;;;4983997;28;21020;-54
2021/05/19 09:42:40;;;;;;;10.23;4.93;;;21.80;50.40;;;;;;4984243;28;20224;-53
2021/05/19 09:45:18;;;;;;;9.27;4.47;;;21.80;50.30;;;;;;4984955;28;20220;-53
2021/05/19 09:47:46;;;;;;;10.77;4.80;;;21.80;50.60;;;;;;4985009;28;20604;-54
2021/05/19 09:50:18;;;;;;;10.37;4.33;;;21.70;50.80;;;;;;4985157;28;20231;-55
2021/05/19 09:53:07;;;;;;;8.50;3.87;;;21.70;50.80;;;;;;4978456;28;20829;-55
2021/05/19 09:55:36;;;;;;;10.10;3.80;;;21.70;50.70;;;;;;4955188;28;20233;-55
2021/05/19 09:58:08;;;;;;;10.83;3.93;;;21.70;50.60;;;;;;4967238;28;20240;-56
2021/05/19 10:00:35;;;;;;;6.87;3.10;;;21.70;50.50;;;;;;4966917;28;20235;-55
2021/05/19 10:03:06;;;;;;;5.77;2.87;;;21.70;50.70;;;;;;4968446;28;20228;-54
2021/05/19 10:05:36;;;;;;;5.73;3.00;;;21.70;50.70;;;;;;4967332;28;20236;-55
2021/05/19 10:08:03;;;;;;;5.20;3.10;;;21.70;50.70;;;;;;4964365;28;20466;-53
2021/05/19 10:10:30;;;;;;;5.47;2.60;;;21.70;50.50;;;;;;4966990;28;20240;-55
2021/05/19 10:12:57;;;;;;;5.10;3.17;;;21.70;50.40;;;;;;4966165;28;20224;-56
2021/05/19 10:15:29;;;;;;;9.13;2.80;;;21.60;50.20;;;;;;4966077;28;20224;-55
2021/05/19 10:18:20;;;;;;;6.47;2.77;;;21.70;50.30;;;;;;4980643;28;20225;-53
2021/05/19 10:20:54;;;;;;;5.77;2.60;;;21.70;50.10;;;;;;4978197;28;20235;-55
2021/05/19 10:23:37;;;;;;;3.17;2.13;;;21.60;50.50;;;;;;4985242;28;20309;-54
2021/05/19 10:26:09;;;;;;;5.63;2.37;;;21.60;50.30;;;;;;4985214;28;21076;-54
2021/05/19 10:28:42;;;;;;;5.50;2.30;;;21.60;50.70;;;;;;5000370;28;20216;-54
2021/05/19 10:31:33;;;;;;;4.83;2.10;;;21.60;50.80;;;;;;4984500;28;20565;-55
2021/05/19 10:34:01;;;;;;;3.13;2.00;;;21.60;50.80;;;;;;4973665;28;20458;-54
2021/05/19 10:36:42;;;;;;;3.77;2.00;;;21.60;51.00;;;;;;4985712;28;20243;-53
2021/05/19 10:39:09;;;;;;;3.90;2.20;;;21.60;51.00;;;;;;4985199;28;20220;-54
2021/05/19 10:41:40;;;;;;;4.63;2.00;;;21.60;50.80;;;;;;4986183;28;20311;-54
2021/05/19 10:44:15;;;;;;;5.67;2.13;;;21.60;50.60;;;;;;4983058;28;20278;-55
2021/05/19 10:47:02;;;;;;;4.63;1.90;;;21.60;50.50;;;;;;4985998;28;20238;-53
2021/05/19 10:52:58;;;;;;;4.23;1.67;;;21.60;50.10;;;;;;4971469;28;20605;-54
2021/05/19 10:58:40;;;;;;;2.90;1.57;;;21.60;50.50;;;;;;4958051;28;21564;-55
2021/05/19 11:01:10;;;;;;;3.80;1.60;;;21.60;50.90;;;;;;4966271;28;20215;-55
2021/05/19 11:03:38;;;;;;;2.20;1.30;;;21.60;50.90;;;;;;4967388;28;20255;-55
2021/05/19 11:06:09;;;;;;;2.93;1.60;;;21.60;50.80;;;;;;4961536;28;20232;-55
2021/05/19 11:08:39;;;;;;;2.27;1.40;;;21.60;50.70;;;;;;4966556;28;20233;-55
2021/05/19 11:11:28;;;;;;;3.70;1.70;;;21.60;50.90;;;;;;4971226;28;20235;-54
2021/05/19 11:14:03;;;;;;;2.03;1.20;;;21.60;51.20;;;;;;4982969;28;20574;-53
2021/05/19 11:16:44;;;;;;;2.10;1.13;;;21.60;51.40;;;;;;4984741;28;20223;-54
2021/05/19 11:19:27;;;;;;;2.60;1.33;;;21.60;51.50;;;;;;4975367;28;20922;-54
2021/05/19 11:21:59;;;;;;;3.83;1.40;;;21.60;51.70;;;;;;4982310;28;20770;-56
2021/05/19 11:24:27;;;;;;;2.17;1.37;;;21.60;51.40;;;;;;4985492;28;20595;-54
2021/05/19 11:26:54;;;;;;;2.50;1.37;;;21.60;51.10;;;;;;4984322;28;20228;-54
2021/05/19 11:29:22;;;;;;;2.13;1.13;;;21.60;50.80;;;;;;4985058;28;20263;-54
2021/05/19 11:31:51;;;;;;;1.70;0.87;;;21.60;51.10;;;;;;4982609;28;20212;-55
2021/05/19 11:34:21;;;;;;;1.67;1.10;;;21.70;51.10;;;;;;4984232;28;20806;-55
2021/05/19 11:36:56;;;;;;;3.37;1.30;;;21.60;51.10;;;;;;4971786;28;21975;-56
2021/05/19 11:39:26;;;;;;;2.17;1.10;;;21.70;51.70;;;;;;4985151;28;20223;-55
2021/05/19 11:42:11;;;;;;;2.53;1.10;;;21.60;51.50;;;;;;4981715;28;20240;-55
2021/05/19 11:44:55;;;;;;;2.00;1.10;;;21.60;51.20;;;;;;4985342;28;20704;-55
2021/05/19 11:47:31;;;;;;;1.80;1.10;;;21.60;51.10;;;;;;4984089;28;20255;-55
2021/05/19 11:50:16;;;;;;;1.60;0.90;;;21.60;51.70;;;;;;4980316;28;20223;-56
2021/05/19 11:52:56;;;;;;;3.00;1.10;;;21.70;51.70;;;;;;4984088;28;20286;-53
2021/05/19 11:55:27;;;;;;;2.00;1.13;;;21.70;52.00;;;;;;4981866;28;20751;-54
2021/05/19 11:58:09;;;;;;;2.53;1.27;;;21.60;52.60;;;;;;4982193;28;20240;-53
2021/05/19 12:00:39;;;;;;;2.73;1.20;;;21.60;51.90;;;;;;4984901;28;20235;-55
2021/05/19 12:03:07;;;;;;;2.33;1.23;;;21.70;52.00;;;;;;4983716;28;20228;-53
2021/05/19 12:06:06;;;;;;;1.67;1.13;;;21.60;52.10;;;;;;4987394;28;20228;-54
2021/05/19 12:08:37;;;;;;;1.77;1.10;;;21.70;52.20;;;;;;4971799;28;21266;-55
2021/05/19 12:11:08;;;;;;;2.03;1.33;;;21.70;52.00;;;;;;4988486;28;20301;-54
2021/05/19 12:13:38;;;;;;;1.37;0.97;;;21.70;51.90;;;;;;4984881;28;20228;-55
2021/05/19 12:16:10;;;;;;;1.63;1.00;;;21.70;52.20;;;;;;4982300;28;20232;-53
2021/05/19 12:18:37;;;;;;;1.47;0.90;;;21.70;52.30;;;;;;4983044;28;20220;-56
2021/05/19 12:21:09;;;;;;;1.77;1.10;;;21.70;51.80;;;;;;4984520;28;20220;-55
2021/05/19 12:23:39;;;;;;;1.90;0.90;;;21.70;52.30;;;;;;4985524;28;20591;-55
2021/05/19 12:26:10;;;;;;;1.60;1.00;;;21.70;52.30;;;;;;4982587;28;20212;-54
2021/05/19 12:28:36;;;;;;;2.07;1.23;;;21.70;52.30;;;;;;4984629;28;20232;-55
2021/05/19 12:31:03;;;;;;;2.17;1.07;;;21.70;52.20;;;;;;4982280;28;20224;-55
2021/05/19 12:33:41;;;;;;;1.53;1.07;;;21.70;52.00;;;;;;4985119;28;20671;-54
2021/05/19 12:36:36;;;;;;;1.97;1.13;;;21.70;52.10;;;;;;4983175;28;20219;-55
2021/05/19 12:39:05;;;;;;;1.40;1.10;;;21.70;52.00;;;;;;4994347;28;20239;-53
2021/05/19 12:41:49;;;;;;;1.27;0.80;;;21.70;51.90;;;;;;4972321;28;20247;-56
2021/05/19 12:44:18;;;;;;;1.17;0.90;;;21.60;51.80;;;;;;4959722;28;20598;-55
2021/05/19 12:47:06;;;;;;;1.63;1.00;;;21.70;51.80;;;;;;4969137;28;20236;-56
2021/05/19 12:49:35;;;;;;;1.40;1.30;;;21.70;51.60;;;;;;4956577;28;20221;-54
2021/05/19 12:52:04;;;;;;;0.93;0.80;;;21.70;51.70;;;;;;4979051;28;20231;-53
2021/05/19 12:54:33;;;;;;;1.53;1.00;;;21.70;51.50;;;;;;4985286;28;20732;-56
2021/05/19 12:57:15;;;;;;;1.37;0.93;;;21.70;51.50;;;;;;4983072;28;20243;-55
2021/05/19 13:00:07;;;;;;;2.20;1.10;;;21.70;51.40;;;;;;4984958;28;20230;-54
2021/05/19 13:02:37;;;;;;;1.80;1.00;;;21.70;51.40;;;;;;5007905;28;20931;-54
2021/05/19 13:05:09;;;;;;;1.13;1.03;;;21.60;51.20;;;;;;4987975;28;20220;-56
2021/05/19 13:07:43;;;;;;;1.33;1.20;;;21.70;51.40;;;;;;4985249;28;20228;-55